createdAt,value
2023-02-02T00:00:01.785Z,24.99
2023-02-02T00:05:08.978Z,24.88
2023-02-02T00:10:16.178Z,24.79
2023-02-02T00:15:23.689Z,24.69
2023-02-02T00:20:30.519Z,24.61
2023-02-02T00:25:37.728Z,24.46
2023-02-02T00:30:44.945Z,24.38
2023-02-02T00:35:52.070Z,24.24
2023-02-02T00:40:59.290Z,24.15
2023-02-02T00:46:06.497Z,24.05
2023-02-02T00:51:13.633Z,23.91
2023-02-02T00:56:20.846Z,23.83
2023-02-02T01:01:28.002Z,23.74
2023-02-02T01:06:35.184Z,23.62
2023-02-02T01:11:42.597Z,23.57
2023-02-02T01:16:49.843Z,23.49
2023-02-02T01:21:56.945Z,23.36
2023-02-02T01:27:04.166Z,23.30
2023-02-02T01:32:11.302Z,23.23
2023-02-02T01:37:18.492Z,23.14
2023-02-02T01:42:25.710Z,23.06
2023-02-02T01:47:32.890Z,22.98
2023-02-02T01:52:40.141Z,22.91
2023-02-02T01:57:47.395Z,22.82
2023-02-02T02:02:54.545Z,22.76
2023-02-02T02:08:01.779Z,22.70
2023-02-02T02:13:09.017Z,22.62
2023-02-02T02:18:16.210Z,22.57
2023-02-02T02:23:23.455Z,22.51
2023-02-02T02:28:30.657Z,22.42
2023-02-02T02:33:37.847Z,22.37
2023-02-02T02:38:45.047Z,22.33
2023-02-02T02:43:52.287Z,22.27
2023-02-02T02:48:59.465Z,22.23
2023-02-02T02:54:06.662Z,22.18
2023-02-02T02:59:13.880Z,22.12
2023-02-02T03:04:21.041Z,22.06
2023-02-02T03:09:28.469Z,22.02
2023-02-02T03:14:35.832Z,21.97
2023-02-02T03:19:42.993Z,21.95
2023-02-02T03:24:50.183Z,21.90
2023-02-02T03:29:57.411Z,21.83
2023-02-02T03:35:04.548Z,21.80
2023-02-02T03:40:11.749Z,21.74
2023-02-02T03:45:18.942Z,21.70
2023-02-02T03:50:26.100Z,21.66
2023-02-02T03:55:33.281Z,21.62
2023-02-02T04:00:40.492Z,21.55
2023-02-02T04:05:47.655Z,21.49
2023-02-02T04:10:54.835Z,21.40
2023-02-02T04:16:02.148Z,21.37
2023-02-02T04:21:09.228Z,21.35
2023-02-02T04:26:16.537Z,21.34
2023-02-02T04:31:23.698Z,21.33
2023-02-02T04:36:30.858Z,21.32
2023-02-02T04:41:38.051Z,21.30
2023-02-02T04:46:45.336Z,21.28
2023-02-02T04:51:52.532Z,21.23
2023-02-02T04:56:59.687Z,21.20
2023-02-02T05:02:06.919Z,21.19
2023-02-02T05:07:14.089Z,21.13
2023-02-02T05:12:21.251Z,21.11
2023-02-02T05:17:28.466Z,21.06
2023-02-02T05:22:35.631Z,21.04
2023-02-02T05:27:42.801Z,21.04
2023-02-02T05:32:50.014Z,20.96
2023-02-02T05:37:59.233Z,20.93
2023-02-02T05:43:04.411Z,20.92
2023-02-02T05:48:11.666Z,20.90
2023-02-02T05:53:18.856Z,20.89
2023-02-02T05:58:26.043Z,20.86
2023-02-02T06:03:33.466Z,20.83
2023-02-02T06:08:40.537Z,20.83
2023-02-02T06:13:47.788Z,20.81
2023-02-02T06:18:55.194Z,20.78
2023-02-02T06:24:02.360Z,20.79
2023-02-02T06:29:09.569Z,20.75
2023-02-02T06:34:16.785Z,20.73
2023-02-02T06:39:24.011Z,20.71
2023-02-02T06:44:31.192Z,20.69
2023-02-02T06:49:38.401Z,20.68
2023-02-02T06:54:45.546Z,20.64
2023-02-02T06:59:52.770Z,20.63
2023-02-02T07:05:00.006Z,20.61
2023-02-02T07:10:07.212Z,20.58
2023-02-02T07:15:14.407Z,20.55
2023-02-02T07:20:21.625Z,20.55
2023-02-02T07:25:28.860Z,20.51
2023-02-02T07:30:36.284Z,20.49
2023-02-02T07:35:43.526Z,20.51
2023-02-02T07:40:50.720Z,20.55
2023-02-02T07:45:57.892Z,20.71
2023-02-02T07:51:05.100Z,20.90
2023-02-02T07:56:12.256Z,21.06
2023-02-02T08:01:19.441Z,21.19
2023-02-02T08:06:26.673Z,21.30
2023-02-02T08:11:33.922Z,21.46
2023-02-02T08:16:41.114Z,21.60
2023-02-02T08:21:48.337Z,21.72
2023-02-02T08:26:55.621Z,21.83
2023-02-02T08:32:02.762Z,21.93
2023-02-02T08:37:10.017Z,22.01
2023-02-02T08:42:17.245Z,22.11
2023-02-02T08:47:24.404Z,22.24
2023-02-02T08:52:31.656Z,22.12
2023-02-02T08:57:38.836Z,22.22
2023-02-02T09:02:46.088Z,22.23
2023-02-02T09:07:53.328Z,22.24
2023-02-02T09:13:00.579Z,22.21
2023-02-02T09:18:07.758Z,22.17
2023-02-02T09:23:14.971Z,22.13
2023-02-02T09:28:22.093Z,22.08
2023-02-02T09:33:29.268Z,22.05
2023-02-02T09:38:36.525Z,22.03
2023-02-02T09:43:43.643Z,21.99
2023-02-02T09:48:50.857Z,21.97
2023-02-02T09:53:58.032Z,21.90
2023-02-02T09:59:18.783Z,21.90
2023-02-02T10:04:12.804Z,21.81
2023-02-02T10:09:19.989Z,21.80
2023-02-02T10:14:27.227Z,21.72
2023-02-02T10:19:34.344Z,21.66
2023-02-02T10:24:41.598Z,21.64
2023-02-02T10:29:49.541Z,21.54
2023-02-02T10:35:10.968Z,21.53
2023-02-02T10:40:03.311Z,21.48
2023-02-02T10:45:10.356Z,21.43
2023-02-02T10:50:17.857Z,21.39
2023-02-02T10:55:24.849Z,21.33
2023-02-02T11:00:32.039Z,21.29
2023-02-02T11:05:39.312Z,21.25
2023-02-02T11:10:46.574Z,21.19
2023-02-02T11:15:53.806Z,21.19
2023-02-02T11:21:00.934Z,21.13
2023-02-02T11:26:08.169Z,21.04
2023-02-02T11:31:15.503Z,21.03
2023-02-02T11:36:22.506Z,20.96
2023-02-02T11:41:29.917Z,20.94
2023-02-02T11:46:37.117Z,20.92
2023-02-02T11:51:44.275Z,20.86
2023-02-02T11:56:51.477Z,20.83
2023-02-02T12:01:58.687Z,20.77
2023-02-02T12:07:05.835Z,20.74
2023-02-02T12:12:13.120Z,20.70
2023-02-02T12:17:20.374Z,20.66
2023-02-02T12:22:27.581Z,20.60
2023-02-02T12:27:34.794Z,20.60
2023-02-02T12:32:42.018Z,20.57
2023-02-02T12:37:49.227Z,20.55
2023-02-02T12:42:56.450Z,20.50
2023-02-02T12:48:03.609Z,20.46
2023-02-02T12:53:12.038Z,20.36
2023-02-02T12:58:18.177Z,20.34
2023-02-02T13:03:25.458Z,20.31
2023-02-02T13:08:32.637Z,20.31
2023-02-02T13:13:39.925Z,20.25
2023-02-02T13:18:47.015Z,20.21
2023-02-02T13:23:54.287Z,20.13
2023-02-02T13:29:01.495Z,20.17
2023-02-02T13:34:08.658Z,20.18
2023-02-02T13:39:15.896Z,20.11
2023-02-02T13:44:23.120Z,20.12
2023-02-02T13:49:30.315Z,20.12
2023-02-02T13:54:37.505Z,20.13
2023-02-02T13:59:44.735Z,20.12
2023-02-02T14:04:51.922Z,20.07
2023-02-02T14:09:59.164Z,20.00
2023-02-02T14:15:06.350Z,19.99
2023-02-02T14:20:13.505Z,20.00
2023-02-02T14:25:20.706Z,20.02
2023-02-02T14:30:27.921Z,20.06
2023-02-02T14:35:35.139Z,20.05
2023-02-02T14:40:42.296Z,20.04
2023-02-02T14:45:49.509Z,20.03
2023-02-02T14:50:56.648Z,20.06
2023-02-02T14:56:03.797Z,20.03
2023-02-02T15:01:11.009Z,20.03
2023-02-02T15:06:18.183Z,20.00
2023-02-02T15:11:25.380Z,20.00
2023-02-02T15:16:32.558Z,20.00
2023-02-02T15:21:39.775Z,19.97
2023-02-02T15:26:46.976Z,19.96
2023-02-02T15:31:54.180Z,19.94
2023-02-02T15:37:01.277Z,19.94
2023-02-02T15:42:08.454Z,19.95
2023-02-02T15:47:15.693Z,19.89
2023-02-02T15:52:22.837Z,19.88
2023-02-02T15:57:30.012Z,19.86
2023-02-02T16:02:37.196Z,19.86
2023-02-02T16:07:48.526Z,19.84
2023-02-02T16:12:51.573Z,19.83
2023-02-02T16:17:58.790Z,19.82
2023-02-02T16:23:05.999Z,19.82
2023-02-02T16:28:13.111Z,19.81
2023-02-02T16:33:20.340Z,19.79
2023-02-02T16:38:27.485Z,19.79
2023-02-02T16:43:34.672Z,19.76
2023-02-02T16:48:41.908Z,19.72
2023-02-02T16:53:49.033Z,19.73
2023-02-02T16:58:56.282Z,19.73
2023-02-02T17:04:03.432Z,19.73
2023-02-02T17:09:10.603Z,19.72
2023-02-02T17:14:17.744Z,19.74
2023-02-02T17:19:24.909Z,19.72
2023-02-02T17:24:32.048Z,19.72
2023-02-02T17:29:39.260Z,19.72
2023-02-02T17:34:46.499Z,19.71
2023-02-02T17:39:53.720Z,19.68
2023-02-02T17:45:00.901Z,19.68
2023-02-02T17:50:08.105Z,19.66
2023-02-02T17:55:15.275Z,19.65
2023-02-02T18:00:22.704Z,19.67
2023-02-02T18:05:29.762Z,19.65
2023-02-02T18:10:36.949Z,19.63
2023-02-02T18:15:44.216Z,19.63
2023-02-02T18:20:51.372Z,19.62
2023-02-02T18:25:58.484Z,19.75
2023-02-02T18:31:05.767Z,19.89
2023-02-02T18:36:12.888Z,20.09
2023-02-02T18:41:20.147Z,20.27
2023-02-02T18:46:27.487Z,20.43
2023-02-02T18:51:34.718Z,20.60
2023-02-02T18:56:41.877Z,20.76
2023-02-02T19:01:49.149Z,20.91
2023-02-02T19:06:56.303Z,21.05
2023-02-02T19:12:03.452Z,21.18
2023-02-02T19:17:10.624Z,21.29
2023-02-02T19:22:18.065Z,21.43
2023-02-02T19:27:25.234Z,21.59
2023-02-02T19:32:32.357Z,21.84
2023-02-02T19:37:39.604Z,22.06
2023-02-02T19:42:46.858Z,22.24
2023-02-02T19:47:54.022Z,22.43
2023-02-02T19:53:01.231Z,22.50
2023-02-02T19:58:08.404Z,22.56
2023-02-02T20:03:15.665Z,22.60
2023-02-02T20:08:22.816Z,22.65
2023-02-02T20:13:30.002Z,22.72
2023-02-02T20:18:37.207Z,22.84
2023-02-02T20:23:44.467Z,22.98
2023-02-02T20:28:51.623Z,23.11
2023-02-02T20:33:58.832Z,23.18
2023-02-02T20:39:06.144Z,23.25
2023-02-02T20:44:13.324Z,23.32
2023-02-02T20:49:20.574Z,23.41
2023-02-02T20:54:27.788Z,23.46
2023-02-02T20:59:34.951Z,23.54
2023-02-02T21:04:42.085Z,23.68
2023-02-02T21:09:49.349Z,23.77
2023-02-02T21:14:56.514Z,23.86
2023-02-02T21:20:03.682Z,23.92
2023-02-02T21:25:12.388Z,23.97
2023-02-02T21:30:19.661Z,24.05
2023-02-02T21:35:26.866Z,24.14
2023-02-02T21:40:34.083Z,24.17
2023-02-02T21:45:41.370Z,24.21
2023-02-02T21:50:48.598Z,24.31
2023-02-02T21:55:55.915Z,24.13
2023-02-02T22:01:03.079Z,24.06
2023-02-02T22:06:10.308Z,23.98
2023-02-02T22:11:17.578Z,24.06
2023-02-02T22:16:25.198Z,24.19
2023-02-02T22:21:32.290Z,24.31
2023-02-02T22:26:39.491Z,24.43
2023-02-02T22:31:46.750Z,24.58
2023-02-02T22:36:53.829Z,24.73
2023-02-02T22:42:00.981Z,24.87
2023-02-02T22:47:08.114Z,24.88
2023-02-02T22:52:15.294Z,24.65
2023-02-02T22:57:22.731Z,24.58
2023-02-02T23:02:29.872Z,24.62
2023-02-02T23:07:37.099Z,24.78
2023-02-02T23:12:44.246Z,24.94
2023-02-02T23:17:51.423Z,25.00
2023-02-02T23:22:58.596Z,25.09
2023-02-02T23:28:05.807Z,25.17
2023-02-02T23:33:12.971Z,25.23
2023-02-02T23:38:20.170Z,25.31
2023-02-02T23:43:27.427Z,25.33
2023-02-02T23:48:34.623Z,25.37
2023-02-02T23:53:41.975Z,25.36
2023-02-02T23:58:49.207Z,25.38
